sensor_id;sensor_type;location;lat;lon;timestamp;temperature;humidity
28863;DHT22;15994;51.796;13.006;2023-06-22T00:00:58;21.40;99.90
28863;DHT22;15994;51.796;13.006;2023-06-22T00:03:26;21.50;99.90
28863;DHT22;15994;51.796;13.006;2023-06-22T00:05:52;21.50;99.90
28863;DHT22;15994;51.796;13.006;2023-06-22T00:08:20;21.50;99.90
28863;DHT22;15994;51.796;13.006;2023-06-22T00:10:46;21.60;99.90
28863;DHT22;15994;51.796;13.006;2023-06-22T00:13:13;21.50;99.90
28863;DHT22;15994;51.796;13.006;2023-06-22T00:15:41;21.50;99.90
28863;DHT22;15994;51.796;13.006;2023-06-22T00:18:09;21.50;99.90
28863;DHT22;15994;51.796;13.006;2023-06-22T00:20:36;21.60;99.90
28863;DHT22;15994;51.796;13.006;2023-06-22T00:23:04;21.50;99.90
28863;DHT22;15994;51.796;13.006;2023-06-22T00:25:36;21.50;99.90
28863;DHT22;15994;51.796;13.006;2023-06-22T00:28:04;21.50;99.90
28863;DHT22;15994;51.796;13.006;2023-06-22T00:30:31;21.40;99.90
28863;DHT22;15994;51.796;13.006;2023-06-22T00:32:58;21.40;99.90
28863;DHT22;15994;51.796;13.006;2023-06-22T00:35:26;21.40;99.90
28863;DHT22;15994;51.796;13.006;2023-06-22T00:37:58;21.50;99.90
28863;DHT22;15994;51.796;13.006;2023-06-22T00:40:26;21.50;99.90
28863;DHT22;15994;51.796;13.006;2023-06-22T00:42:54;21.60;99.90
28863;DHT22;15994;51.796;13.006;2023-06-22T00:45:21;21.70;99.90
28863;DHT22;15994;51.796;13.006;2023-06-22T00:47:55;21.60;99.90
28863;DHT22;15994;51.796;13.006;2023-06-22T00:50:24;21.60;99.90
28863;DHT22;15994;51.796;13.006;2023-06-22T00:52:53;21.60;99.90
28863;DHT22;15994;51.796;13.006;2023-06-22T00:55:22;21.60;99.90
28863;DHT22;15994;51.796;13.006;2023-06-22T00:57:49;21.60;99.90
28863;DHT22;15994;51.796;13.006;2023-06-22T01:00:16;21.60;99.90
28863;DHT22;15994;51.796;13.006;2023-06-22T01:02:44;21.50;99.90
28863;DHT22;15994;51.796;13.006;2023-06-22T01:05:13;21.50;99.90
28863;DHT22;15994;51.796;13.006;2023-06-22T01:08:00;21.50;99.90
28863;DHT22;15994;51.796;13.006;2023-06-22T01:15:44;21.30;99.90
28863;DHT22;15994;51.796;13.006;2023-06-22T01:18:14;21.40;99.90
28863;DHT22;15994;51.796;13.006;2023-06-22T01:20:43;21.30;99.90
28863;DHT22;15994;51.796;13.006;2023-06-22T01:26:31;21.30;99.90
28863;DHT22;15994;51.796;13.006;2023-06-22T01:29:04;21.30;99.90
28863;DHT22;15994;51.796;13.006;2023-06-22T01:31:33;21.30;99.90
28863;DHT22;15994;51.796;13.006;2023-06-22T01:34:02;21.30;99.90
28863;DHT22;15994;51.796;13.006;2023-06-22T01:36:31;21.20;99.90
28863;DHT22;15994;51.796;13.006;2023-06-22T01:38:59;21.20;99.90
28863;DHT22;15994;51.796;13.006;2023-06-22T01:41:28;21.20;99.90
28863;DHT22;15994;51.796;13.006;2023-06-22T01:43:56;21.20;99.90
28863;DHT22;15994;51.796;13.006;2023-06-22T01:46:23;21.20;99.90
28863;DHT22;15994;51.796;13.006;2023-06-22T01:48:50;21.30;99.90
28863;DHT22;15994;51.796;13.006;2023-06-22T01:51:17;21.30;99.90
28863;DHT22;15994;51.796;13.006;2023-06-22T01:53:44;21.30;99.90
28863;DHT22;15994;51.796;13.006;2023-06-22T01:56:11;21.30;99.90
28863;DHT22;15994;51.796;13.006;2023-06-22T01:58:53;21.30;99.90
28863;DHT22;15994;51.796;13.006;2023-06-22T02:01:26;21.20;99.90
28863;DHT22;15994;51.796;13.006;2023-06-22T02:04:03;21.20;99.90
28863;DHT22;15994;51.796;13.006;2023-06-22T02:06:34;21.20;99.90
28863;DHT22;15994;51.796;13.006;2023-06-22T02:09:08;21.20;99.90
28863;DHT22;15994;51.796;13.006;2023-06-22T02:11:36;21.20;99.90
28863;DHT22;15994;51.796;13.006;2023-06-22T02:14:04;21.20;99.90
28863;DHT22;15994;51.796;13.006;2023-06-22T02:16:31;21.20;99.90
28863;DHT22;15994;51.796;13.006;2023-06-22T02:19:01;21.20;99.90
28863;DHT22;15994;51.796;13.006;2023-06-22T02:21:28;21.20;99.90
28863;DHT22;15994;51.796;13.006;2023-06-22T02:23:55;21.10;99.90
28863;DHT22;15994;51.796;13.006;2023-06-22T02:26:22;21.10;99.90
28863;DHT22;15994;51.796;13.006;2023-06-22T02:28:50;21.10;99.90
28863;DHT22;15994;51.796;13.006;2023-06-22T02:31:16;21.00;99.90
28863;DHT22;15994;51.796;13.006;2023-06-22T02:33:43;21.10;99.90
28863;DHT22;15994;51.796;13.006;2023-06-22T02:36:10;21.00;99.90
28863;DHT22;15994;51.796;13.006;2023-06-22T02:38:40;21.00;99.90
28863;DHT22;15994;51.796;13.006;2023-06-22T02:41:16;20.90;99.90
28863;DHT22;15994;51.796;13.006;2023-06-22T02:43:45;20.80;99.90
28863;DHT22;15994;51.796;13.006;2023-06-22T02:46:12;20.70;99.90
28863;DHT22;15994;51.796;13.006;2023-06-22T02:48:40;20.70;99.90
28863;DHT22;15994;51.796;13.006;2023-06-22T02:51:07;20.70;99.90
28863;DHT22;15994;51.796;13.006;2023-06-22T02:53:34;20.70;99.90
28863;DHT22;15994;51.796;13.006;2023-06-22T02:56:03;20.60;99.90
28863;DHT22;15994;51.796;13.006;2023-06-22T02:58:32;20.50;99.90
28863;DHT22;15994;51.796;13.006;2023-06-22T03:01:04;20.30;99.90
28863;DHT22;15994;51.796;13.006;2023-06-22T03:03:31;20.30;99.90
28863;DHT22;15994;51.796;13.006;2023-06-22T03:05:58;20.20;99.90
28863;DHT22;15994;51.796;13.006;2023-06-22T03:08:26;20.20;99.90
28863;DHT22;15994;51.796;13.006;2023-06-22T03:10:52;20.20;99.90
28863;DHT22;15994;51.796;13.006;2023-06-22T03:13:19;20.20;99.90
28863;DHT22;15994;51.796;13.006;2023-06-22T03:15:45;20.10;99.90
28863;DHT22;15994;51.796;13.006;2023-06-22T03:18:12;20.10;99.90
28863;DHT22;15994;51.796;13.006;2023-06-22T03:20:38;20.00;99.90
28863;DHT22;15994;51.796;13.006;2023-06-22T03:23:05;20.00;99.90
28863;DHT22;15994;51.796;13.006;2023-06-22T03:25:31;20.00;99.90
28863;DHT22;15994;51.796;13.006;2023-06-22T03:27:58;20.00;99.90
28863;DHT22;15994;51.796;13.006;2023-06-22T03:30:26;20.00;99.90
28863;DHT22;15994;51.796;13.006;2023-06-22T03:32:53;20.10;99.90
28863;DHT22;15994;51.796;13.006;2023-06-22T03:35:19;20.00;99.90
28863;DHT22;15994;51.796;13.006;2023-06-22T03:37:46;19.90;99.90
28863;DHT22;15994;51.796;13.006;2023-06-22T03:40:12;20.00;99.90
28863;DHT22;15994;51.796;13.006;2023-06-22T03:42:39;19.90;99.90
28863;DHT22;15994;51.796;13.006;2023-06-22T03:45:06;20.00;99.90
28863;DHT22;15994;51.796;13.006;2023-06-22T03:47:33;20.00;99.90
28863;DHT22;15994;51.796;13.006;2023-06-22T03:49:59;20.10;99.90
28863;DHT22;15994;51.796;13.006;2023-06-22T03:52:28;20.10;99.90
28863;DHT22;15994;51.796;13.006;2023-06-22T03:54:55;20.10;99.90
28863;DHT22;15994;51.796;13.006;2023-06-22T03:57:22;20.20;99.90
28863;DHT22;15994;51.796;13.006;2023-06-22T03:59:49;20.20;99.90
28863;DHT22;15994;51.796;13.006;2023-06-22T04:02:15;20.20;99.90
28863;DHT22;15994;51.796;13.006;2023-06-22T04:04:42;20.30;99.90
28863;DHT22;15994;51.796;13.006;2023-06-22T04:07:08;20.30;99.90
28863;DHT22;15994;51.796;13.006;2023-06-22T04:09:35;20.40;99.90
28863;DHT22;15994;51.796;13.006;2023-06-22T04:12:02;20.40;99.90
28863;DHT22;15994;51.796;13.006;2023-06-22T04:14:28;20.50;99.90
28863;DHT22;15994;51.796;13.006;2023-06-22T04:16:55;20.60;99.90
28863;DHT22;15994;51.796;13.006;2023-06-22T04:19:22;20.60;99.90
28863;DHT22;15994;51.796;13.006;2023-06-22T04:21:48;20.70;99.90
28863;DHT22;15994;51.796;13.006;2023-06-22T04:24:15;20.70;99.90
28863;DHT22;15994;51.796;13.006;2023-06-22T04:26:41;20.80;99.90
28863;DHT22;15994;51.796;13.006;2023-06-22T04:29:10;20.80;99.90
28863;DHT22;15994;51.796;13.006;2023-06-22T04:31:37;20.90;99.90
28863;DHT22;15994;51.796;13.006;2023-06-22T04:34:06;21.00;99.90
28863;DHT22;15994;51.796;13.006;2023-06-22T04:36:37;21.00;99.90
28863;DHT22;15994;51.796;13.006;2023-06-22T04:39:10;21.10;99.90
28863;DHT22;15994;51.796;13.006;2023-06-22T04:41:38;21.20;99.90
28863;DHT22;15994;51.796;13.006;2023-06-22T04:44:12;21.30;99.90
28863;DHT22;15994;51.796;13.006;2023-06-22T04:46:39;21.50;99.90
28863;DHT22;15994;51.796;13.006;2023-06-22T04:49:09;21.60;99.90
28863;DHT22;15994;51.796;13.006;2023-06-22T04:51:40;21.70;99.90
28863;DHT22;15994;51.796;13.006;2023-06-22T04:54:08;21.90;99.90
28863;DHT22;15994;51.796;13.006;2023-06-22T04:56:35;21.90;99.90
28863;DHT22;15994;51.796;13.006;2023-06-22T04:59:02;22.00;99.90
28863;DHT22;15994;51.796;13.006;2023-06-22T05:01:29;22.00;99.90
28863;DHT22;15994;51.796;13.006;2023-06-22T05:03:57;21.90;99.90
28863;DHT22;15994;51.796;13.006;2023-06-22T05:06:26;21.90;99.90
28863;DHT22;15994;51.796;13.006;2023-06-22T05:08:53;22.00;99.90
28863;DHT22;15994;51.796;13.006;2023-06-22T05:11:27;22.00;99.90
28863;DHT22;15994;51.796;13.006;2023-06-22T05:13:54;22.20;99.90
28863;DHT22;15994;51.796;13.006;2023-06-22T05:16:22;22.30;99.90
28863;DHT22;15994;51.796;13.006;2023-06-22T05:18:58;22.30;99.90
28863;DHT22;15994;51.796;13.006;2023-06-22T05:21:26;22.30;99.90
28863;DHT22;15994;51.796;13.006;2023-06-22T05:23:53;22.40;99.90
28863;DHT22;15994;51.796;13.006;2023-06-22T05:26:21;22.60;99.90
28863;DHT22;15994;51.796;13.006;2023-06-22T05:28:48;22.60;99.90
28863;DHT22;15994;51.796;13.006;2023-06-22T05:31:16;22.70;99.90
28863;DHT22;15994;51.796;13.006;2023-06-22T05:33:43;22.70;99.90
28863;DHT22;15994;51.796;13.006;2023-06-22T05:36:10;22.80;99.90
28863;DHT22;15994;51.796;13.006;2023-06-22T05:38:38;22.90;99.90
28863;DHT22;15994;51.796;13.006;2023-06-22T05:41:05;22.90;99.90
28863;DHT22;15994;51.796;13.006;2023-06-22T05:43:31;22.70;99.90
28863;DHT22;15994;51.796;13.006;2023-06-22T05:45:59;22.70;99.90
28863;DHT22;15994;51.796;13.006;2023-06-22T05:48:25;22.70;99.90
28863;DHT22;15994;51.796;13.006;2023-06-22T05:50:52;22.70;99.90
28863;DHT22;15994;51.796;13.006;2023-06-22T05:53:19;22.70;99.90
28863;DHT22;15994;51.796;13.006;2023-06-22T05:55:46;22.80;99.90
28863;DHT22;15994;51.796;13.006;2023-06-22T05:58:12;22.90;99.90
28863;DHT22;15994;51.796;13.006;2023-06-22T06:00:40;23.10;99.90
28863;DHT22;15994;51.796;13.006;2023-06-22T06:03:07;23.10;99.90
28863;DHT22;15994;51.796;13.006;2023-06-22T06:05:34;23.30;99.90
28863;DHT22;15994;51.796;13.006;2023-06-22T06:08:02;23.40;99.90
28863;DHT22;15994;51.796;13.006;2023-06-22T06:10:30;23.50;99.90
28863;DHT22;15994;51.796;13.006;2023-06-22T06:12:57;23.60;99.90
28863;DHT22;15994;51.796;13.006;2023-06-22T06:15:24;23.70;99.90
28863;DHT22;15994;51.796;13.006;2023-06-22T06:17:52;23.80;99.90
28863;DHT22;15994;51.796;13.006;2023-06-22T06:20:21;23.90;99.90
28863;DHT22;15994;51.796;13.006;2023-06-22T06:22:48;24.00;99.80
28863;DHT22;15994;51.796;13.006;2023-06-22T06:25:15;24.00;99.70
28863;DHT22;15994;51.796;13.006;2023-06-22T06:27:43;24.00;99.50
28863;DHT22;15994;51.796;13.006;2023-06-22T06:30:11;24.20;99.40
28863;DHT22;15994;51.796;13.006;2023-06-22T06:32:38;24.30;99.10
28863;DHT22;15994;51.796;13.006;2023-06-22T06:35:07;24.40;99.00
28863;DHT22;15994;51.796;13.006;2023-06-22T06:37:38;24.40;98.80
28863;DHT22;15994;51.796;13.006;2023-06-22T06:40:06;24.30;98.80
28863;DHT22;15994;51.796;13.006;2023-06-22T06:42:34;24.30;99.10
28863;DHT22;15994;51.796;13.006;2023-06-22T06:45:00;24.50;99.40
28863;DHT22;15994;51.796;13.006;2023-06-22T06:47:27;24.60;99.00
28863;DHT22;15994;51.796;13.006;2023-06-22T06:49:53;24.80;98.60
28863;DHT22;15994;51.796;13.006;2023-06-22T06:52:20;24.90;98.40
28863;DHT22;15994;51.796;13.006;2023-06-22T06:54:47;25.20;98.60
28863;DHT22;15994;51.796;13.006;2023-06-22T06:57:13;25.40;98.00
28863;DHT22;15994;51.796;13.006;2023-06-22T06:59:40;25.60;97.40
28863;DHT22;15994;51.796;13.006;2023-06-22T07:02:07;25.90;97.20
28863;DHT22;15994;51.796;13.006;2023-06-22T07:04:34;26.00;96.90
28863;DHT22;15994;51.796;13.006;2023-06-22T07:07:01;26.10;97.00
28863;DHT22;15994;51.796;13.006;2023-06-22T07:09:28;26.10;96.40
28863;DHT22;15994;51.796;13.006;2023-06-22T07:11:55;26.00;96.50
28863;DHT22;15994;51.796;13.006;2023-06-22T07:14:21;26.10;97.10
28863;DHT22;15994;51.796;13.006;2023-06-22T07:16:48;26.00;96.80
28863;DHT22;15994;51.796;13.006;2023-06-22T07:19:14;26.00;97.00
28863;DHT22;15994;51.796;13.006;2023-06-22T07:21:41;25.90;96.90
28863;DHT22;15994;51.796;13.006;2023-06-22T07:24:07;26.00;96.90
28863;DHT22;15994;51.796;13.006;2023-06-22T07:26:34;25.80;97.20
28863;DHT22;15994;51.796;13.006;2023-06-22T07:29:00;25.80;96.90
28863;DHT22;15994;51.796;13.006;2023-06-22T07:31:27;25.60;97.10
28863;DHT22;15994;51.796;13.006;2023-06-22T07:33:53;25.60;97.20
28863;DHT22;15994;51.796;13.006;2023-06-22T07:36:20;25.60;97.30
28863;DHT22;15994;51.796;13.006;2023-06-22T07:38:46;25.70;97.10
28863;DHT22;15994;51.796;13.006;2023-06-22T07:41:14;25.70;96.90
28863;DHT22;15994;51.796;13.006;2023-06-22T07:43:41;25.70;96.80
28863;DHT22;15994;51.796;13.006;2023-06-22T07:46:07;25.90;96.70
28863;DHT22;15994;51.796;13.006;2023-06-22T07:48:37;26.00;96.60
28863;DHT22;15994;51.796;13.006;2023-06-22T07:51:04;26.10;96.50
28863;DHT22;15994;51.796;13.006;2023-06-22T07:53:31;25.90;96.60
28863;DHT22;15994;51.796;13.006;2023-06-22T07:55:58;26.00;96.80
28863;DHT22;15994;51.796;13.006;2023-06-22T07:58:24;26.10;96.00
28863;DHT22;15994;51.796;13.006;2023-06-22T08:00:51;26.10;96.10
28863;DHT22;15994;51.796;13.006;2023-06-22T08:03:17;26.10;95.90
28863;DHT22;15994;51.796;13.006;2023-06-22T08:05:44;26.20;95.60
28863;DHT22;15994;51.796;13.006;2023-06-22T08:08:10;26.10;95.10
28863;DHT22;15994;51.796;13.006;2023-06-22T08:10:37;26.30;95.20
28863;DHT22;15994;51.796;13.006;2023-06-22T08:13:04;26.50;95.20
28863;DHT22;15994;51.796;13.006;2023-06-22T08:15:30;26.70;95.40
28863;DHT22;15994;51.796;13.006;2023-06-22T08:17:57;27.00;94.70
28863;DHT22;15994;51.796;13.006;2023-06-22T08:20:25;27.30;94.80
28863;DHT22;15994;51.796;13.006;2023-06-22T08:22:53;27.40;93.70
28863;DHT22;15994;51.796;13.006;2023-06-22T08:25:20;27.40;93.80
28863;DHT22;15994;51.796;13.006;2023-06-22T08:27:47;27.50;94.10
28863;DHT22;15994;51.796;13.006;2023-06-22T08:30:15;27.40;94.00
28863;DHT22;15994;51.796;13.006;2023-06-22T08:32:42;27.40;94.50
28863;DHT22;15994;51.796;13.006;2023-06-22T08:35:08;27.40;93.80
28863;DHT22;15994;51.796;13.006;2023-06-22T08:37:35;27.40;93.90
28863;DHT22;15994;51.796;13.006;2023-06-22T08:40:05;27.60;93.30
28863;DHT22;15994;51.796;13.006;2023-06-22T08:42:33;27.50;94.00
28863;DHT22;15994;51.796;13.006;2023-06-22T08:44:59;27.70;94.00
28863;DHT22;15994;51.796;13.006;2023-06-22T08:47:29;27.70;93.40
28863;DHT22;15994;51.796;13.006;2023-06-22T08:49:56;27.50;93.90
28863;DHT22;15994;51.796;13.006;2023-06-22T08:52:23;27.70;93.90
28863;DHT22;15994;51.796;13.006;2023-06-22T08:54:49;28.00;93.60
28863;DHT22;15994;51.796;13.006;2023-06-22T08:57:16;28.10;93.20
28863;DHT22;15994;51.796;13.006;2023-06-22T08:59:43;28.20;92.80
28863;DHT22;15994;51.796;13.006;2023-06-22T09:02:09;28.20;92.50
28863;DHT22;15994;51.796;13.006;2023-06-22T09:04:36;28.00;92.20
28863;DHT22;15994;51.796;13.006;2023-06-22T09:07:03;27.90;92.50
28863;DHT22;15994;51.796;13.006;2023-06-22T09:09:29;27.90;93.60
28863;DHT22;15994;51.796;13.006;2023-06-22T09:11:56;28.00;93.30
28863;DHT22;15994;51.796;13.006;2023-06-22T09:14:22;28.30;93.00
28863;DHT22;15994;51.796;13.006;2023-06-22T09:16:49;28.00;92.60
28863;DHT22;15994;51.796;13.006;2023-06-22T09:19:16;27.90;93.60
28863;DHT22;15994;51.796;13.006;2023-06-22T09:21:43;28.10;93.60
28863;DHT22;15994;51.796;13.006;2023-06-22T09:24:09;28.30;92.80
28863;DHT22;15994;51.796;13.006;2023-06-22T09:26:36;28.50;93.20
28863;DHT22;15994;51.796;13.006;2023-06-22T09:29:05;28.60;92.40
28863;DHT22;15994;51.796;13.006;2023-06-22T09:31:31;28.40;92.20
28863;DHT22;15994;51.796;13.006;2023-06-22T09:33:58;28.40;92.90
28863;DHT22;15994;51.796;13.006;2023-06-22T09:36:24;28.30;92.50
28863;DHT22;15994;51.796;13.006;2023-06-22T09:38:51;28.40;92.70
28863;DHT22;15994;51.796;13.006;2023-06-22T09:41:21;28.30;92.30
28863;DHT22;15994;51.796;13.006;2023-06-22T09:43:48;28.40;92.50
28863;DHT22;15994;51.796;13.006;2023-06-22T09:46:17;28.40;92.70
28863;DHT22;15994;51.796;13.006;2023-06-22T09:48:46;28.40;92.50
28863;DHT22;15994;51.796;13.006;2023-06-22T09:51:13;28.30;93.10
28863;DHT22;15994;51.796;13.006;2023-06-22T09:53:39;28.50;92.60
28863;DHT22;15994;51.796;13.006;2023-06-22T09:56:06;28.60;92.90
28863;DHT22;15994;51.796;13.006;2023-06-22T09:58:32;28.90;92.60
28863;DHT22;15994;51.796;13.006;2023-06-22T10:00:59;29.20;92.50
28863;DHT22;15994;51.796;13.006;2023-06-22T10:03:25;29.50;92.30
28863;DHT22;15994;51.796;13.006;2023-06-22T10:05:52;29.80;92.20
28863;DHT22;15994;51.796;13.006;2023-06-22T10:08:19;29.90;91.70
28863;DHT22;15994;51.796;13.006;2023-06-22T10:10:45;30.10;91.70
28863;DHT22;15994;51.796;13.006;2023-06-22T10:13:12;30.30;91.00
28863;DHT22;15994;51.796;13.006;2023-06-22T10:15:39;30.40;91.20
28863;DHT22;15994;51.796;13.006;2023-06-22T10:18:05;30.40;90.90
28863;DHT22;15994;51.796;13.006;2023-06-22T10:20:32;30.50;91.00
28863;DHT22;15994;51.796;13.006;2023-06-22T10:22:58;30.40;89.50
28863;DHT22;15994;51.796;13.006;2023-06-22T10:25:25;30.30;90.80
28863;DHT22;15994;51.796;13.006;2023-06-22T10:27:52;30.10;90.40
28863;DHT22;15994;51.796;13.006;2023-06-22T10:30:19;29.80;91.00
28863;DHT22;15994;51.796;13.006;2023-06-22T10:32:45;29.70;90.30
28863;DHT22;15994;51.796;13.006;2023-06-22T10:35:12;29.80;90.60
28863;DHT22;15994;51.796;13.006;2023-06-22T10:37:43;30.00;90.40
28863;DHT22;15994;51.796;13.006;2023-06-22T10:40:11;30.00;90.30
28863;DHT22;15994;51.796;13.006;2023-06-22T10:42:38;30.00;90.40
28863;DHT22;15994;51.796;13.006;2023-06-22T10:45:05;30.00;88.90
28863;DHT22;15994;51.796;13.006;2023-06-22T10:47:32;30.10;90.50
28863;DHT22;15994;51.796;13.006;2023-06-22T10:49:58;30.20;90.30
28863;DHT22;15994;51.796;13.006;2023-06-22T10:52:25;30.20;90.40
28863;DHT22;15994;51.796;13.006;2023-06-22T10:54:51;30.30;90.00
28863;DHT22;15994;51.796;13.006;2023-06-22T10:57:18;30.20;90.10
28863;DHT22;15994;51.796;13.006;2023-06-22T10:59:45;30.30;88.40
28863;DHT22;15994;51.796;13.006;2023-06-22T11:02:12;30.20;88.60
28863;DHT22;15994;51.796;13.006;2023-06-22T11:04:38;29.90;89.70
28863;DHT22;15994;51.796;13.006;2023-06-22T11:07:05;29.80;90.20
28863;DHT22;15994;51.796;13.006;2023-06-22T11:09:32;29.90;90.20
28863;DHT22;15994;51.796;13.006;2023-06-22T11:11:58;29.90;89.80
28863;DHT22;15994;51.796;13.006;2023-06-22T11:14:25;29.80;89.10
28863;DHT22;15994;51.796;13.006;2023-06-22T11:16:52;29.80;90.00
28863;DHT22;15994;51.796;13.006;2023-06-22T11:19:19;29.70;90.30
28863;DHT22;15994;51.796;13.006;2023-06-22T11:21:45;29.30;90.00
28863;DHT22;15994;51.796;13.006;2023-06-22T11:24:12;29.30;90.50
28863;DHT22;15994;51.796;13.006;2023-06-22T11:26:38;29.10;90.70
28863;DHT22;15994;51.796;13.006;2023-06-22T11:29:05;29.20;90.80
28863;DHT22;15994;51.796;13.006;2023-06-22T11:31:32;29.40;90.20
28863;DHT22;15994;51.796;13.006;2023-06-22T11:33:58;29.60;90.50
28863;DHT22;15994;51.796;13.006;2023-06-22T11:36:25;29.70;90.60
28863;DHT22;15994;51.796;13.006;2023-06-22T11:38:52;29.90;90.30
28863;DHT22;15994;51.796;13.006;2023-06-22T11:41:19;29.80;90.00
28863;DHT22;15994;51.796;13.006;2023-06-22T11:43:45;29.90;90.30
28863;DHT22;15994;51.796;13.006;2023-06-22T11:46:12;30.00;90.50
28863;DHT22;15994;51.796;13.006;2023-06-22T11:48:38;30.30;90.00
28863;DHT22;15994;51.796;13.006;2023-06-22T11:51:05;30.40;90.30
28863;DHT22;15994;51.796;13.006;2023-06-22T11:53:34;30.40;90.20
28863;DHT22;15994;51.796;13.006;2023-06-22T11:56:01;30.50;89.40
28863;DHT22;15994;51.796;13.006;2023-06-22T11:58:27;30.40;88.90
28863;DHT22;15994;51.796;13.006;2023-06-22T12:00:54;30.30;89.30
28863;DHT22;15994;51.796;13.006;2023-06-22T12:03:20;30.30;88.50
28863;DHT22;15994;51.796;13.006;2023-06-22T12:05:47;30.40;88.10
28863;DHT22;15994;51.796;13.006;2023-06-22T12:08:14;30.30;88.00
28863;DHT22;15994;51.796;13.006;2023-06-22T12:10:41;30.30;88.80
28863;DHT22;15994;51.796;13.006;2023-06-22T12:13:07;30.50;89.20
28863;DHT22;15994;51.796;13.006;2023-06-22T12:15:34;30.60;88.00
28863;DHT22;15994;51.796;13.006;2023-06-22T12:18:00;30.40;88.90
28863;DHT22;15994;51.796;13.006;2023-06-22T12:20:27;30.40;88.70
28863;DHT22;15994;51.796;13.006;2023-06-22T12:22:54;30.30;88.50
28863;DHT22;15994;51.796;13.006;2023-06-22T12:25:23;30.20;90.00
28863;DHT22;15994;51.796;13.006;2023-06-22T12:27:50;30.30;89.00
28863;DHT22;15994;51.796;13.006;2023-06-22T12:30:16;30.20;87.70
28863;DHT22;15994;51.796;13.006;2023-06-22T12:32:43;30.30;88.20
28863;DHT22;15994;51.796;13.006;2023-06-22T12:35:09;30.20;87.70
28863;DHT22;15994;51.796;13.006;2023-06-22T12:37:40;30.40;89.40
28863;DHT22;15994;51.796;13.006;2023-06-22T12:40:07;30.50;88.70
28863;DHT22;15994;51.796;13.006;2023-06-22T12:42:34;30.80;87.10
28863;DHT22;15994;51.796;13.006;2023-06-22T12:45:01;30.60;87.00
28863;DHT22;15994;51.796;13.006;2023-06-22T12:47:27;30.40;86.60
28863;DHT22;15994;51.796;13.006;2023-06-22T12:49:54;30.50;87.50
28863;DHT22;15994;51.796;13.006;2023-06-22T12:52:20;30.40;87.10
28863;DHT22;15994;51.796;13.006;2023-06-22T12:54:47;30.60;89.00
28863;DHT22;15994;51.796;13.006;2023-06-22T12:57:14;30.80;86.60
28863;DHT22;15994;51.796;13.006;2023-06-22T12:59:40;31.00;85.50
28863;DHT22;15994;51.796;13.006;2023-06-22T13:02:07;31.10;86.30
28863;DHT22;15994;51.796;13.006;2023-06-22T13:04:33;31.30;86.10
28863;DHT22;15994;51.796;13.006;2023-06-22T13:07:00;31.40;84.70
28863;DHT22;15994;51.796;13.006;2023-06-22T13:09:26;31.40;85.00
28863;DHT22;15994;51.796;13.006;2023-06-22T13:11:53;31.50;84.30
28863;DHT22;15994;51.796;13.006;2023-06-22T13:14:19;31.30;84.50
28863;DHT22;15994;51.796;13.006;2023-06-22T13:16:46;31.20;83.70
28863;DHT22;15994;51.796;13.006;2023-06-22T13:19:12;31.00;85.00
28863;DHT22;15994;51.796;13.006;2023-06-22T13:21:40;30.90;84.10
28863;DHT22;15994;51.796;13.006;2023-06-22T13:24:06;30.90;85.00
28863;DHT22;15994;51.796;13.006;2023-06-22T13:26:33;30.90;84.50
28863;DHT22;15994;51.796;13.006;2023-06-22T13:28:59;30.90;84.40
28863;DHT22;15994;51.796;13.006;2023-06-22T13:31:26;30.90;84.30
28863;DHT22;15994;51.796;13.006;2023-06-22T13:33:52;30.70;84.00
28863;DHT22;15994;51.796;13.006;2023-06-22T13:36:19;30.90;84.10
28863;DHT22;15994;51.796;13.006;2023-06-22T13:38:46;30.90;84.90
28863;DHT22;15994;51.796;13.006;2023-06-22T13:41:13;30.90;83.40
28863;DHT22;15994;51.796;13.006;2023-06-22T13:43:39;30.90;83.20
28863;DHT22;15994;51.796;13.006;2023-06-22T13:46:06;31.00;84.40
28863;DHT22;15994;51.796;13.006;2023-06-22T13:48:32;31.10;84.10
28863;DHT22;15994;51.796;13.006;2023-06-22T13:50:59;31.10;84.60
28863;DHT22;15994;51.796;13.006;2023-06-22T13:53:25;31.20;83.50
28863;DHT22;15994;51.796;13.006;2023-06-22T13:55:52;31.00;83.80
28863;DHT22;15994;51.796;13.006;2023-06-22T13:58:18;30.90;82.90
28863;DHT22;15994;51.796;13.006;2023-06-22T14:00:46;30.80;83.20
28863;DHT22;15994;51.796;13.006;2023-06-22T14:03:13;31.00;84.50
28863;DHT22;15994;51.796;13.006;2023-06-22T14:05:41;31.00;85.20
28863;DHT22;15994;51.796;13.006;2023-06-22T14:08:08;31.10;82.40
28863;DHT22;15994;51.796;13.006;2023-06-22T14:10:34;30.80;83.40
28863;DHT22;15994;51.796;13.006;2023-06-22T14:13:01;30.90;84.80
28863;DHT22;15994;51.796;13.006;2023-06-22T14:15:31;31.10;83.60
28863;DHT22;15994;51.796;13.006;2023-06-22T14:17:57;31.20;83.60
28863;DHT22;15994;51.796;13.006;2023-06-22T14:20:24;31.20;83.40
28863;DHT22;15994;51.796;13.006;2023-06-22T14:22:51;31.30;84.00
28863;DHT22;15994;51.796;13.006;2023-06-22T14:25:17;31.40;82.80
28863;DHT22;15994;51.796;13.006;2023-06-22T14:27:44;31.50;81.00
28863;DHT22;15994;51.796;13.006;2023-06-22T14:30:10;31.30;81.60
28863;DHT22;15994;51.796;13.006;2023-06-22T14:32:37;31.30;81.90
28863;DHT22;15994;51.796;13.006;2023-06-22T14:35:04;31.20;83.40
28863;DHT22;15994;51.796;13.006;2023-06-22T14:37:31;31.40;82.70
28863;DHT22;15994;51.796;13.006;2023-06-22T14:39:57;31.40;82.90
28863;DHT22;15994;51.796;13.006;2023-06-22T14:42:24;31.40;83.60
28863;DHT22;15994;51.796;13.006;2023-06-22T14:44:52;31.40;83.70
28863;DHT22;15994;51.796;13.006;2023-06-22T14:47:18;31.40;82.00
28863;DHT22;15994;51.796;13.006;2023-06-22T14:49:46;31.40;82.60
28863;DHT22;15994;51.796;13.006;2023-06-22T14:52:12;31.30;81.60
28863;DHT22;15994;51.796;13.006;2023-06-22T14:54:39;31.20;81.70
28863;DHT22;15994;51.796;13.006;2023-06-22T14:57:06;31.30;81.70
28863;DHT22;15994;51.796;13.006;2023-06-22T14:59:32;31.40;81.30
28863;DHT22;15994;51.796;13.006;2023-06-22T15:01:59;31.10;81.60
28863;DHT22;15994;51.796;13.006;2023-06-22T15:04:25;31.20;83.60
28863;DHT22;15994;51.796;13.006;2023-06-22T15:06:56;31.30;82.00
28863;DHT22;15994;51.796;13.006;2023-06-22T15:09:23;31.40;81.50
28863;DHT22;15994;51.796;13.006;2023-06-22T15:11:49;31.40;81.40
28863;DHT22;15994;51.796;13.006;2023-06-22T15:14:16;31.40;82.10
28863;DHT22;15994;51.796;13.006;2023-06-22T15:16:43;31.70;82.20
28863;DHT22;15994;51.796;13.006;2023-06-22T15:19:09;31.90;79.80
28863;DHT22;15994;51.796;13.006;2023-06-22T15:21:38;32.00;80.30
28863;DHT22;15994;51.796;13.006;2023-06-22T15:24:04;32.00;80.20